Time;durP1;ratioP1;P1;durP2;ratioP2;P2;SDS_P1;SDS_P2;PMS_P1;PMS_P2;Temp;Humidity;BMP_temperature;BMP_pressure;BME280_temperature;BME280_humidity;BME280_pressure;Samples;Min_cycle;Max_cycle;Signal;HPM_P1;HPM_P2
2024/03/22 00:00:29;;;;;;;36.22;13.02;;;11.20;99.90;;;;;;5010993;28;20040;-86
2024/03/22 00:02:54;;;;;;;34.90;13.90;;;11.20;99.90;;;;;;5012309;28;20583;-86
2024/03/22 00:05:21;;;;;;;30.10;13.00;;;11.30;99.90;;;;;;5011462;28;20026;-86
2024/03/22 00:07:47;;;;;;;33.15;13.38;;;11.30;99.90;;;;;;5011224;28;20029;-86
2024/03/22 00:10:13;;;;;;;34.65;13.88;;;11.30;99.90;;;;;;5010688;28;20010;-86
2024/03/22 00:12:39;;;;;;;32.55;13.13;;;11.20;99.90;;;;;;5012811;28;20080;-88
2024/03/22 00:15:06;;;;;;;33.42;13.55;;;11.20;99.90;;;;;;5013323;28;20121;-87
2024/03/22 00:17:33;;;;;;;35.90;14.50;;;11.30;99.90;;;;;;5011336;28;20030;-88
2024/03/22 00:19:59;;;;;;;36.78;14.70;;;;;;;;;;5012490;28;20108;-85
2024/03/22 00:22:24;;;;;;;35.15;14.25;;;11.30;99.90;;;;;;5011144;28;20034;-86
2024/03/22 00:24:50;;;;;;;38.00;13.88;;;11.30;99.90;;;;;;5013087;28;20025;-86
2024/03/22 00:27:16;;;;;;;40.38;14.95;;;11.30;99.90;;;;;;5011425;28;20478;-85
2024/03/22 00:29:41;;;;;;;33.85;12.82;;;11.30;99.90;;;;;;5009023;28;20030;-86
2024/03/22 00:32:07;;;;;;;35.95;14.65;;;11.30;99.90;;;;;;5014044;28;20030;-86
2024/03/22 00:34:36;;;;;;;38.67;15.10;;;11.30;99.90;;;;;;5011750;28;20030;-88
2024/03/22 00:37:02;;;;;;;36.28;14.48;;;11.30;99.90;;;;;;5013751;28;20057;-88
2024/03/22 00:39:27;;;;;;;34.33;14.52;;;11.30;99.90;;;;;;5011147;28;20490;-85
2024/03/22 00:41:53;;;;;;;40.20;16.05;;;11.30;99.90;;;;;;5016200;28;20014;-86
2024/03/22 00:44:20;;;;;;;36.30;14.40;;;;;;;;;;5015064;28;20029;-86
2024/03/22 00:46:46;;;;;;;38.50;14.05;;;;;;;;;;5015885;28;20033;-86
2024/03/22 00:49:12;;;;;;;37.40;15.18;;;;;;;;;;5013550;28;20022;-86
2024/03/22 00:51:38;;;;;;;38.92;15.85;;;11.30;99.90;;;;;;5015537;28;20026;-85
2024/03/22 00:54:04;;;;;;;39.97;15.48;;;11.30;99.90;;;;;;5014213;28;20084;-87
2024/03/22 00:56:29;;;;;;;40.22;15.85;;;11.30;99.90;;;;;;5016736;28;20500;-86
2024/03/22 00:58:55;;;;;;;40.10;15.80;;;11.20;99.90;;;;;;5013609;28;20065;-86
2024/03/22 01:01:20;;;;;;;38.22;14.35;;;11.20;99.90;;;;;;5015577;28;20034;-85
2024/03/22 01:03:46;;;;;;;40.78;15.88;;;11.30;99.90;;;;;;5013513;28;20548;-86
2024/03/22 01:06:11;;;;;;;39.03;15.00;;;11.20;99.90;;;;;;5014342;28;20393;-86
2024/03/22 01:08:37;;;;;;;37.20;14.25;;;12.80;99.90;;;;;;5013072;28;20030;-86
2024/03/22 01:11:02;;;;;;;35.45;14.48;;;11.20;99.90;;;;;;5014124;28;20010;-86
2024/03/22 01:13:28;;;;;;;34.78;14.50;;;;;;;;;;5014174;28;20627;-86
2024/03/22 01:15:54;;;;;;;33.65;14.10;;;11.20;99.90;;;;;;5013773;28;20029;-86
2024/03/22 01:18:20;;;;;;;39.50;14.73;;;11.20;99.90;;;;;;5013505;28;20108;-85
2024/03/22 01:20:46;;;;;;;34.33;14.57;;;;;;;;;;5012561;28;20032;-86
2024/03/22 01:23:11;;;;;;;41.47;15.23;;;11.10;99.90;;;;;;5012341;28;20192;-87
2024/03/22 01:25:37;;;;;;;40.58;14.93;;;11.20;99.90;;;;;;5012383;28;20108;-88
2024/03/22 01:28:04;;;;;;;37.08;13.93;;;11.20;99.90;;;;;;5012527;28;20010;-87
2024/03/22 01:30:29;;;;;;;35.47;12.90;;;11.20;99.90;;;;;;5011743;28;20026;-87
2024/03/22 01:32:55;;;;;;;41.83;14.30;;;11.20;99.90;;;;;;5012401;28;20399;-85
2024/03/22 01:35:21;;;;;;;34.30;13.73;;;11.20;99.90;;;;;;5012512;28;20113;-86
2024/03/22 01:37:47;;;;;;;35.72;13.30;;;11.20;99.90;;;;;;5013643;28;20037;-85
2024/03/22 01:40:13;;;;;;;35.40;13.57;;;11.20;99.90;;;;;;5012357;28;20022;-85
2024/03/22 01:42:39;;;;;;;35.00;13.02;;;11.10;99.90;;;;;;5011055;28;20025;-87
2024/03/22 01:45:05;;;;;;;32.35;13.60;;;12.00;99.90;;;;;;5011410;28;20026;-88
2024/03/22 01:47:31;;;;;;;34.50;14.20;;;11.20;99.90;;;;;;5014828;28;20076;-86
2024/03/22 01:49:57;;;;;;;33.90;14.30;;;11.20;99.90;;;;;;5011915;28;20494;-85
2024/03/22 01:52:23;;;;;;;31.38;14.02;;;11.20;99.90;;;;;;5012515;28;20092;-85
2024/03/22 01:54:49;;;;;;;41.13;15.35;;;11.10;99.90;;;;;;5011904;28;20038;-85
2024/03/22 01:57:15;;;;;;;41.78;15.35;;;;;;;;;;5013086;28;20493;-85
2024/03/22 01:59:41;;;;;;;35.67;14.05;;;11.00;99.90;;;;;;5011784;28;20026;-85
2024/03/22 02:02:07;;;;;;;37.83;15.77;;;11.00;99.90;;;;;;5013109;28;20018;-87
2024/03/22 02:04:33;;;;;;;41.63;16.20;;;11.00;99.90;;;;;;5011678;28;20543;-85
2024/03/22 02:06:58;;;;;;;39.40;16.08;;;11.00;99.90;;;;;;5012459;28;20037;-85
2024/03/22 02:09:25;;;;;;;51.58;18.95;;;11.00;99.90;;;;;;5013043;28;20565;-86
2024/03/22 02:11:51;;;;;;;42.58;18.05;;;;;;;;;;5012168;28;20037;-85
2024/03/22 02:14:17;;;;;;;52.80;20.00;;;11.00;99.90;;;;;;5012627;28;20040;-85
2024/03/22 02:16:42;;;;;;;59.22;20.33;;;10.90;99.90;;;;;;5012303;28;20018;-86
2024/03/22 02:19:08;;;;;;;57.47;19.73;;;10.80;99.90;;;;;;5012280;28;20121;-86
2024/03/22 02:21:34;;;;;;;51.90;20.92;;;10.80;99.90;;;;;;5012152;28;20037;-86
2024/03/22 02:24:00;;;;;;;51.17;21.35;;;10.80;99.90;;;;;;5011114;28;20026;-87
2024/03/22 02:26:25;;;;;;;56.10;20.95;;;10.70;99.90;;;;;;5011501;28;20030;-86
2024/03/22 02:28:51;;;;;;;58.58;23.02;;;10.70;99.90;;;;;;5011063;28;20025;-85
2024/03/22 02:31:17;;;;;;;58.63;20.40;;;10.70;99.90;;;;;;5014409;28;20037;-85
2024/03/22 02:33:42;;;;;;;57.97;23.70;;;10.70;99.90;;;;;;5011691;28;20385;-85
2024/03/22 02:36:09;;;;;;;59.83;21.52;;;10.60;99.90;;;;;;5014294;28;20405;-87
2024/03/22 02:38:34;;;;;;;56.05;21.42;;;11.10;99.90;;;;;;5014465;28;20037;-87
2024/03/22 02:41:00;;;;;;;51.50;18.42;;;11.00;99.90;;;;;;5012143;28;20022;-87
2024/03/22 02:43:26;;;;;;;60.72;21.40;;;10.50;99.90;;;;;;5012919;28;20402;-85
2024/03/22 02:45:51;;;;;;;64.55;22.13;;;10.50;99.90;;;;;;5011238;28;20034;-86
2024/03/22 02:48:17;;;;;;;59.35;21.35;;;;;;;;;;5011853;28;20396;-85
2024/03/22 02:50:43;;;;;;;59.97;20.08;;;10.50;99.90;;;;;;5011923;28;20102;-85
2024/03/22 02:53:09;;;;;;;55.85;18.75;;;10.50;99.90;;;;;;5012380;28;20061;-85
2024/03/22 02:55:39;;;;;;;61.15;19.10;;;10.50;99.90;;;;;;5011198;28;20429;-86
2024/03/22 02:58:05;;;;;;;49.38;19.10;;;10.60;99.90;;;;;;5009485;28;20122;-86
2024/03/22 03:00:31;;;;;;;43.95;16.55;;;;;;;;;;5012749;28;20029;-86
2024/03/22 03:02:56;;;;;;;45.08;15.07;;;10.40;99.90;;;;;;5010652;28;20036;-87
2024/03/22 03:05:25;;;;;;;48.97;16.00;;;10.30;99.90;;;;;;5011629;28;20112;-86
2024/03/22 03:07:50;;;;;;;42.80;14.50;;;10.30;99.90;;;;;;5011007;28;20030;-85
2024/03/22 03:10:16;;;;;;;45.80;15.30;;;10.30;99.90;;;;;;5013142;28;20101;-85
2024/03/22 03:12:42;;;;;;;41.05;15.43;;;10.30;99.90;;;;;;5013443;28;20489;-84
2024/03/22 03:15:08;;;;;;;45.72;14.60;;;10.30;99.90;;;;;;5013099;28;20021;-87
2024/03/22 03:17:33;;;;;;;43.25;15.07;;;10.40;99.90;;;;;;5010170;28;20367;-86
2024/03/22 03:19:59;;;;;;;42.28;15.43;;;10.30;99.90;;;;;;5014221;28;20069;-87
2024/03/22 03:22:25;;;;;;;40.10;14.52;;;10.30;99.90;;;;;;5013147;28;20900;-85
2024/03/22 03:24:50;;;;;;;40.75;15.38;;;10.30;99.90;;;;;;5012379;28;20033;-85
2024/03/22 03:27:16;;;;;;;44.75;14.20;;;10.20;99.90;;;;;;5013276;28;20030;-84
2024/03/22 03:29:42;;;;;;;43.08;14.90;;;;;;;;;;5013291;28;20125;-84
2024/03/22 03:32:08;;;;;;;36.92;12.25;;;;;;;;;;5015402;28;20026;-87
2024/03/22 03:34:34;;;;;;;28.63;11.52;;;10.20;99.90;;;;;;5015355;28;20375;-87
2024/03/22 03:37:01;;;;;;;30.98;10.35;;;10.20;99.90;;;;;;5014310;28;20053;-86
2024/03/22 03:39:29;;;;;;;33.35;12.50;;;10.20;99.90;;;;;;5015595;28;20429;-85
2024/03/22 03:41:55;;;;;;;35.30;11.60;;;;;;;;;;5015862;28;20395;-85
2024/03/22 03:44:20;;;;;;;34.25;11.55;;;10.10;99.90;;;;;;5015687;28;20048;-85
2024/03/22 03:46:46;;;;;;;35.05;12.02;;;10.20;99.90;;;;;;5014746;28;20033;-85
2024/03/22 03:49:12;;;;;;;41.58;12.60;;;;;;;;;;5016553;28;20044;-86
2024/03/22 03:51:38;;;;;;;40.08;12.15;;;10.10;99.90;;;;;;5015399;28;20026;-87
2024/03/22 03:54:03;;;;;;;41.85;15.77;;;10.10;99.90;;;;;;5016677;28;20393;-87
2024/03/22 03:56:32;;;;;;;38.55;12.93;;;10.10;99.90;;;;;;5014905;28;20022;-85
2024/03/22 03:58:58;;;;;;;43.53;14.48;;;10.10;99.90;;;;;;5014728;28;20038;-85
2024/03/22 04:01:24;;;;;;;36.85;13.20;;;10.10;99.90;;;;;;5013621;28;20091;-85
2024/03/22 04:03:49;;;;;;;39.70;14.30;;;10.10;99.90;;;;;;5013880;28;20025;-85
2024/03/22 04:06:18;;;;;;;38.75;13.20;;;10.10;99.90;;;;;;5012307;28;20183;-86
2024/03/22 04:08:44;;;;;;;38.40;12.95;;;;;;;;;;5014498;28;20026;-86
2024/03/22 04:11:11;;;;;;;44.70;13.32;;;10.10;99.90;;;;;;5013578;28;20037;-84
2024/03/22 04:13:37;;;;;;;35.63;12.32;;;10.10;99.90;;;;;;5014736;28;20061;-88
2024/03/22 04:16:03;;;;;;;40.70;12.85;;;10.10;99.90;;;;;;5017323;28;20022;-84
2024/03/22 04:18:28;;;;;;;39.78;13.98;;;10.10;99.90;;;;;;5019620;28;20041;-85
2024/03/22 04:20:58;;;;;;;35.33;12.15;;;10.00;99.90;;;;;;5016404;28;20037;-85
2024/03/22 04:23:24;;;;;;;44.95;12.85;;;10.00;99.90;;;;;;5018359;28;20072;-85
2024/03/22 04:26:01;;;;;;;41.47;13.65;;;10.00;99.90;;;;;;5017119;28;20029;-85
2024/03/22 04:28:28;;;;;;;37.03;12.30;;;10.00;99.90;;;;;;5017918;28;20065;-85
2024/03/22 04:31:08;;;;;;;47.92;14.68;;;10.10;99.90;;;;;;5017370;28;20029;-85
2024/03/22 04:33:35;;;;;;;33.58;12.20;;;10.10;99.90;;;;;;5017885;28;20045;-86
2024/03/22 04:36:01;;;;;;;32.53;11.52;;;10.10;99.90;;;;;;5018276;28;20029;-85
2024/03/22 04:38:27;;;;;;;34.47;13.15;;;10.10;99.90;;;;;;5018531;28;20025;-84
2024/03/22 04:40:55;;;;;;;34.78;11.15;;;10.10;99.90;;;;;;5019487;28;20022;-84
2024/03/22 04:43:21;;;;;;;34.60;11.50;;;;;;;;;;5018616;28;20057;-85
2024/03/22 04:45:48;;;;;;;32.65;12.38;;;10.00;99.90;;;;;;5016162;28;20026;-85
2024/03/22 04:48:18;;;;;;;37.05;13.32;;;10.00;99.90;;;;;;5016214;28;20029;-85
2024/03/22 04:50:49;;;;;;;41.92;13.90;;;10.00;99.90;;;;;;5019511;28;20109;-84
2024/03/22 04:53:16;;;;;;;34.10;12.25;;;10.00;99.90;;;;;;5017136;28;20030;-85
2024/03/22 04:55:45;;;;;;;39.20;13.55;;;10.00;99.90;;;;;;5019385;28;20543;-86
2024/03/22 04:58:19;;;;;;;38.33;12.35;;;10.00;99.90;;;;;;5016098;28;20036;-85
2024/03/22 05:00:45;;;;;;;37.45;14.98;;;;;;;;;;5019911;28;20030;-87
2024/03/22 05:03:12;;;;;;;38.03;13.98;;;;;;;;;;5015110;28;20030;-85
2024/03/22 05:05:38;;;;;;;43.97;14.23;;;;;;;;;;5017095;28;20026;-87
2024/03/22 05:08:04;;;;;;;39.83;15.07;;;9.90;99.90;;;;;;5015278;28;20485;-86
2024/03/22 05:10:30;;;;;;;45.58;15.38;;;10.00;99.90;;;;;;5017794;28;20021;-87
2024/03/22 05:12:57;;;;;;;43.83;15.38;;;10.00;99.90;;;;;;5016652;28;20472;-85
2024/03/22 05:15:23;;;;;;;42.67;15.30;;;10.00;99.90;;;;;;5016683;28;20030;-85
2024/03/22 05:17:49;;;;;;;40.10;14.43;;;;;;;;;;5013803;28;20033;-85
2024/03/22 05:20:16;;;;;;;44.42;15.73;;;9.90;99.90;;;;;;5014593;28;20036;-86
2024/03/22 05:22:42;;;;;;;47.22;16.50;;;9.90;99.90;;;;;;5014766;28;20046;-86
2024/03/22 05:25:08;;;;;;;42.05;16.88;;;10.00;99.90;;;;;;5014964;28;20113;-86
2024/03/22 05:27:34;;;;;;;45.83;17.15;;;10.00;99.90;;;;;;5017115;28;20056;-84
2024/03/22 05:30:00;;;;;;;40.88;14.88;;;9.90;99.90;;;;;;5017152;28;20018;-85
2024/03/22 05:32:26;;;;;;;43.65;15.35;;;10.00;99.90;;;;;;5015428;28;20025;-84
2024/03/22 05:34:53;;;;;;;46.33;16.55;;;10.00;99.90;;;;;;5016995;28;20037;-85
2024/03/22 05:37:18;;;;;;;45.22;17.33;;;9.90;99.90;;;;;;5015217;28;20037;-85
2024/03/22 05:39:44;;;;;;;47.88;17.60;;;9.90;99.90;;;;;;5013966;28;20030;-85
2024/03/22 05:42:10;;;;;;;42.38;15.88;;;9.80;99.90;;;;;;5015906;28;20049;-86
2024/03/22 05:44:35;;;;;;;44.58;15.50;;;9.80;99.90;;;;;;5015705;28;20076;-86
2024/03/22 05:47:01;;;;;;;42.85;15.88;;;9.80;99.90;;;;;;5016150;28;20026;-85
2024/03/22 05:49:27;;;;;;;48.65;16.27;;;9.50;99.90;;;;;;5017003;28;20044;-84
2024/03/22 05:51:53;;;;;;;39.20;13.73;;;9.80;99.90;;;;;;5016886;28;20026;-84
2024/03/22 05:54:18;;;;;;;35.67;14.40;;;9.80;99.90;;;;;;5015604;28;20586;-85
2024/03/22 05:56:44;;;;;;;46.60;15.57;;;9.80;99.90;;;;;;5016506;28;20030;-85
2024/03/22 05:59:10;;;;;;;38.30;15.95;;;10.20;99.90;;;;;;5015682;28;20577;-86
2024/03/22 06:01:36;;;;;;;37.83;14.18;;;9.80;99.90;;;;;;5015126;28;20040;-85
2024/03/22 06:04:01;;;;;;;37.88;14.65;;;10.10;99.90;;;;;;5014483;28;20029;-87
2024/03/22 06:06:27;;;;;;;45.00;16.63;;;9.70;99.90;;;;;;5018343;28;20045;-85
2024/03/22 06:08:54;;;;;;;48.88;15.63;;;9.70;99.90;;;;;;5013863;28;20094;-85
2024/03/22 06:11:21;;;;;;;44.63;16.70;;;9.70;99.90;;;;;;5016910;28;20030;-84
2024/03/22 06:13:47;;;;;;;54.15;16.45;;;;;;;;;;5014186;28;20026;-85
2024/03/22 06:16:13;;;;;;;46.65;16.70;;;9.70;99.90;;;;;;5015877;28;20116;-86
2024/03/22 06:18:40;;;;;;;36.42;14.80;;;9.80;99.90;;;;;;5014188;28;20057;-86
2024/03/22 06:21:06;;;;;;;42.80;16.50;;;9.80;99.90;;;;;;5016414;28;20026;-88
2024/03/22 06:23:32;;;;;;;36.85;15.18;;;;;;;;;;5015488;28;20030;-86
2024/03/22 06:25:59;;;;;;;42.53;15.73;;;9.80;99.90;;;;;;5017631;28;20884;-84
2024/03/22 06:28:26;;;;;;;40.25;14.75;;;9.90;99.90;;;;;;5013255;28;20039;-84
2024/03/22 06:30:52;;;;;;;39.97;15.18;;;10.00;99.90;;;;;;5014007;28;20038;-85
2024/03/22 06:33:19;;;;;;;37.58;13.73;;;;;;;;;;5013982;28;20021;-86
2024/03/22 06:35:44;;;;;;;33.42;12.93;;;10.00;99.90;;;;;;5012821;28;20041;-86
2024/03/22 06:38:10;;;;;;;34.88;14.02;;;10.00;99.90;;;;;;5011419;28;20026;-87
2024/03/22 06:40:36;;;;;;;33.72;13.00;;;10.20;99.90;;;;;;5015698;28;20064;-88
2024/03/22 06:43:02;;;;;;;29.33;12.77;;;;;;;;;;5015225;28;20277;-83
2024/03/22 06:45:28;;;;;;;26.35;10.40;;;;;;;;;;5018013;28;20041;-83
2024/03/22 06:47:54;;;;;;;30.30;10.93;;;;;;;;;;5018604;28;20026;-83
2024/03/22 06:50:24;;;;;;;33.47;11.32;;;10.30;99.90;;;;;;5017158;28;20045;-83
2024/03/22 06:52:53;;;;;;;34.17;11.20;;;10.40;99.90;;;;;;5017645;28;20029;-83
2024/03/22 06:55:22;;;;;;;26.00;10.20;;;10.50;99.90;;;;;;5019965;28;20054;-84
2024/03/22 06:57:48;;;;;;;;;;;10.40;99.90;;;;;;5017973;28;20033;-83
2024/03/22 07:00:15;;;;;;;27.95;9.95;;;10.40;99.90;;;;;;5016846;28;19906;-84
2024/03/22 07:02:41;;;;;;;28.75;10.73;;;10.40;99.90;;;;;;5019180;28;20121;-81
2024/03/22 07:05:07;;;;;;;36.72;13.05;;;10.40;99.90;;;;;;5019134;28;20069;-82
2024/03/22 07:07:34;;;;;;;26.17;11.20;;;10.40;99.90;;;;;;5017973;28;20427;-83
2024/03/22 07:09:59;;;;;;;33.92;12.23;;;10.40;99.90;;;;;;5022764;28;20022;-83
2024/03/22 07:12:25;;;;;;;25.65;11.13;;;10.40;99.90;;;;;;5020864;28;20022;-82
2024/03/22 07:14:51;;;;;;;29.63;11.40;;;10.50;99.90;;;;;;5022446;28;20025;-82
2024/03/22 07:17:16;;;;;;;25.20;9.60;;;10.50;99.90;;;;;;5021786;28;20032;-83
2024/03/22 07:19:42;;;;;;;29.17;8.95;;;10.60;99.90;;;;;;5023274;28;20454;-83
2024/03/22 07:22:08;;;;;;;25.42;8.73;;;10.60;99.90;;;;;;5020596;28;20061;-82
2024/03/22 07:24:34;;;;;;;28.13;9.82;;;10.50;99.90;;;;;;5020250;28;20014;-82
2024/03/22 07:26:59;;;;;;;31.35;10.77;;;10.50;99.90;;;;;;5020804;28;20022;-83
2024/03/22 07:29:25;;;;;;;31.42;9.55;;;10.60;99.90;;;;;;5021169;28;20022;-83
2024/03/22 07:31:51;;;;;;;26.20;10.50;;;;;;;;;;5020908;28;20046;-83
2024/03/22 07:34:17;;;;;;;30.45;9.73;;;10.50;99.90;;;;;;5020092;28;20037;-82
2024/03/22 07:36:42;;;;;;;29.02;9.07;;;10.60;99.90;;;;;;5019808;28;20041;-83
2024/03/22 07:39:09;;;;;;;29.40;9.57;;;10.50;99.90;;;;;;5021563;28;20044;-83
2024/03/22 07:41:35;;;;;;;34.38;10.25;;;;;;;;;;5019220;28;20021;-84
2024/03/22 07:44:02;;;;;;;23.88;8.82;;;10.50;99.90;;;;;;5019771;28;20025;-84
2024/03/22 07:46:28;;;;;;;23.45;9.52;;;10.50;99.90;;;;;;5019866;28;20073;-84
2024/03/22 07:48:53;;;;;;;27.88;9.15;;;10.60;99.90;;;;;;5020030;28;20018;-83
2024/03/22 07:51:20;;;;;;;24.10;8.77;;;10.60;99.90;;;;;;5018792;28;20021;-83
2024/03/22 07:53:46;;;;;;;23.88;8.65;;;10.60;99.90;;;;;;5019289;28;20025;-83
2024/03/22 07:56:12;;;;;;;25.15;9.35;;;10.60;99.90;;;;;;5021266;28;20399;-83
2024/03/22 07:58:38;;;;;;;19.00;7.38;;;10.60;99.90;;;;;;5020049;28;20026;-83
2024/03/22 08:01:04;;;;;;;24.35;9.10;;;10.60;99.90;;;;;;5019053;28;20058;-83
2024/03/22 08:03:30;;;;;;;23.23;6.65;;;10.60;99.90;;;;;;5019907;28;20030;-84
2024/03/22 08:05:55;;;;;;;23.90;6.15;;;10.60;99.90;;;;;;5019834;28;20093;-83
2024/03/22 08:08:21;;;;;;;22.73;7.15;;;10.60;99.90;;;;;;5019970;28;20044;-83
2024/03/22 08:10:46;;;;;;;25.63;8.00;;;10.60;99.90;;;;;;5020908;28;20037;-83
2024/03/22 08:13:12;;;;;;;23.13;7.07;;;10.60;99.90;;;;;;5019189;28;20030;-83
2024/03/22 08:15:38;;;;;;;24.08;7.25;;;10.60;99.90;;;;;;5021565;28;20014;-83
2024/03/22 08:18:03;;;;;;;16.08;5.75;;;11.70;99.90;;;;;;5021711;28;20032;-84
2024/03/22 08:20:30;;;;;;;16.70;5.45;;;10.50;99.90;;;;;;5021492;28;20026;-83
2024/03/22 08:22:55;;;;;;;21.98;5.55;;;10.50;99.90;;;;;;5020587;28;20026;-84
2024/03/22 08:25:23;;;;;;;18.05;5.28;;;10.50;99.90;;;;;;5020183;28;20022;-84
2024/03/22 08:27:48;;;;;;;21.10;5.20;;;10.50;99.90;;;;;;5023183;28;20105;-83
2024/03/22 08:30:14;;;;;;;15.40;6.00;;;10.40;99.90;;;;;;5021383;28;20053;-83
2024/03/22 08:32:39;;;;;;;16.90;4.82;;;10.30;99.90;;;;;;5023415;28;20025;-84
2024/03/22 08:35:05;;;;;;;19.00;4.90;;;10.40;99.90;;;;;;5020879;28;20018;-83
2024/03/22 08:37:33;;;;;;;15.05;4.90;;;10.40;99.90;;;;;;5018557;28;20125;-83
2024/03/22 08:39:59;;;;;;;17.92;4.07;;;10.30;99.90;;;;;;5021537;28;20025;-83
2024/03/22 08:42:24;;;;;;;18.88;4.65;;;10.30;99.90;;;;;;5021615;28;20093;-84
2024/03/22 08:44:50;;;;;;;20.73;5.47;;;10.20;99.90;;;;;;5022553;28;20025;-84
2024/03/22 08:47:15;;;;;;;23.23;5.95;;;11.00;99.90;;;;;;5024504;28;20493;-83
2024/03/22 08:49:45;;;;;;;24.17;5.30;;;10.20;99.90;;;;;;5024330;28;20029;-83
2024/03/22 08:52:11;;;;;;;20.60;6.13;;;10.20;99.90;;;;;;5023418;28;20402;-83
2024/03/22 08:54:37;;;;;;;15.07;4.82;;;10.20;99.90;;;;;;5022691;28;20018;-83
2024/03/22 08:57:02;;;;;;;19.75;5.03;;;10.20;99.90;;;;;;5022506;28;20037;-83
2024/03/22 08:59:28;;;;;;;22.95;6.07;;;11.00;99.90;;;;;;5022187;28;20021;-83
2024/03/22 09:01:54;;;;;;;18.52;6.22;;;10.10;99.90;;;;;;5024562;28;20037;-83
2024/03/22 09:04:20;;;;;;;17.48;5.38;;;10.20;99.90;;;;;;5026515;28;20026;-83
2024/03/22 09:06:45;;;;;;;22.65;6.72;;;10.80;99.90;;;;;;5023432;28;20021;-83
2024/03/22 09:09:11;;;;;;;20.10;5.75;;;;;;;;;;5016356;28;20025;-84
2024/03/22 09:11:37;;;;;;;19.48;6.53;;;;;;;;;;5025013;28;20026;-84
2024/03/22 09:14:06;;;;;;;16.50;5.57;;;10.30;99.90;;;;;;5021745;28;20055;-83
2024/03/22 09:16:32;;;;;;;16.75;5.55;;;10.30;99.90;;;;;;5025607;28;20374;-84
2024/03/22 09:19:00;;;;;;;22.92;6.88;;;;;;;;;;5021653;28;20064;-84
2024/03/22 09:21:26;;;;;;;19.40;5.35;;;10.30;99.90;;;;;;5021403;28;20037;-83
2024/03/22 09:23:51;;;;;;;12.77;5.03;;;10.30;99.90;;;;;;5021740;28;20022;-85
2024/03/22 09:26:17;;;;;;;18.33;5.45;;;10.40;99.90;;;;;;5021284;28;20037;-84
2024/03/22 09:28:46;;;;;;;29.33;7.40;;;10.40;99.90;;;;;;5021066;28;20545;-86
2024/03/22 09:31:11;;;;;;;;;;;10.40;99.90;;;;;;5022455;28;20020;-86
2024/03/22 09:33:38;;;;;;;14.48;5.10;;;10.40;99.90;;;;;;5020208;28;20361;-82
2024/03/22 09:36:05;;;;;;;14.52;5.53;;;10.40;99.90;;;;;;5023836;28;20048;-76
2024/03/22 09:38:32;;;;;;;12.35;4.93;;;10.40;99.90;;;;;;5020673;28;20108;-79
2024/03/22 09:40:58;;;;;;;13.85;5.80;;;10.30;99.90;;;;;;5018148;28;20032;-81
2024/03/22 09:43:27;;;;;;;15.32;5.78;;;10.30;99.90;;;;;;5022130;28;20516;-81
2024/03/22 09:45:53;;;;;;;17.77;5.90;;;10.30;99.90;;;;;;5023363;28;20126;-80
2024/03/22 09:48:19;;;;;;;15.13;5.35;;;10.30;99.90;;;;;;5021290;28;20026;-80
2024/03/22 09:50:49;;;;;;;12.82;5.25;;;10.30;99.90;;;;;;5021457;28;20049;-80
2024/03/22 09:53:22;;;;;;;13.05;4.78;;;10.30;99.90;;;;;;5022510;28;20002;-85
2024/03/22 09:55:49;;;;;;;11.35;4.65;;;10.30;99.90;;;;;;5020822;28;20018;-84
2024/03/22 09:58:16;;;;;;;12.48;4.55;;;10.30;99.90;;;;;;5021455;28;20426;-81
2024/03/22 10:00:42;;;;;;;11.57;4.90;;;10.30;99.90;;;;;;5020504;28;20061;-82
2024/03/22 10:03:08;;;;;;;14.95;5.03;;;10.30;99.90;;;;;;5021381;28;20002;-80
2024/03/22 10:05:34;;;;;;;15.13;4.57;;;10.30;99.90;;;;;;5018847;28;20026;-78
2024/03/22 10:08:01;;;;;;;12.25;4.28;;;10.30;99.90;;;;;;5020350;28;20033;-80
2024/03/22 10:10:27;;;;;;;12.00;5.10;;;10.40;99.90;;;;;;5019857;28;20026;-83
2024/03/22 10:12:53;;;;;;;8.68;4.95;;;10.30;99.90;;;;;;5020987;28;20045;-82
2024/03/22 10:15:19;;;;;;;15.32;5.43;;;;;;;;;;5020027;28;20402;-82
2024/03/22 10:17:45;;;;;;;14.50;5.07;;;10.40;99.90;;;;;;5021754;28;20477;-83
2024/03/22 10:20:16;;;;;;;13.80;5.53;;;10.40;99.90;;;;;;5021861;28;20026;-83
2024/03/22 10:23:08;;;;;;;13.38;5.38;;;10.40;99.90;;;;;;5018064;28;20029;-81
2024/03/22 10:25:34;;;;;;;11.15;4.57;;;10.40;99.90;;;;;;5015017;28;20036;-80
2024/03/22 10:28:00;;;;;;;16.63;5.35;;;10.50;99.90;;;;;;5018672;28;20058;-80
2024/03/22 10:30:26;;;;;;;16.45;5.78;;;10.50;99.90;;;;;;5017067;28;20383;-82
2024/03/22 10:32:52;;;;;;;14.15;5.82;;;10.60;99.90;;;;;;5017975;28;20034;-83
2024/03/22 10:35:18;;;;;;;21.15;5.93;;;10.60;99.90;;;;;;5017909;28;20026;-82
2024/03/22 10:37:44;;;;;;;16.77;7.07;;;10.70;99.90;;;;;;5018794;28;20033;-82
2024/03/22 10:40:11;;;;;;;14.32;5.70;;;10.60;99.90;;;;;;5019027;28;20113;-81
2024/03/22 10:42:38;;;;;;;12.55;5.82;;;10.60;99.90;;;;;;5020542;28;20053;-83
2024/03/22 10:45:04;;;;;;;16.20;5.60;;;10.70;99.90;;;;;;5019326;28;20030;-81
2024/03/22 10:47:32;;;;;;;16.10;7.32;;;10.70;99.90;;;;;;5020159;28;20029;-81
2024/03/22 10:50:11;;;;;;;17.73;5.65;;;10.80;99.90;;;;;;5021157;28;20064;-82
2024/03/22 10:52:42;;;;;;;13.50;5.85;;;10.80;99.90;;;;;;5021811;28;20029;-82
2024/03/22 10:55:22;;;;;;;12.00;5.75;;;10.70;99.90;;;;;;5018830;28;20083;-81
2024/03/22 10:57:48;;;;;;;17.52;5.28;;;10.70;99.90;;;;;;5019398;28;20018;-83
2024/03/22 11:00:15;;;;;;;15.23;4.38;;;10.80;99.90;;;;;;5018732;28;20076;-83
2024/03/22 11:02:43;;;;;;;12.88;4.90;;;10.80;99.90;;;;;;5021260;28;20026;-80
2024/03/22 11:05:17;;;;;;;10.77;4.53;;;10.80;99.90;;;;;;5019161;28;20513;-82
2024/03/22 11:07:44;;;;;;;11.85;4.05;;;10.80;99.90;;;;;;5021352;28;20040;-81
2024/03/22 11:10:12;;;;;;;9.55;3.63;;;11.00;99.90;;;;;;5017681;28;20371;-81
2024/03/22 11:12:39;;;;;;;12.23;4.07;;;11.00;99.90;;;;;;5020033;28;20029;-82
2024/03/22 11:15:05;;;;;;;9.25;3.75;;;11.00;99.90;;;;;;5016374;28;20037;-80
2024/03/22 11:17:31;;;;;;;9.73;3.25;;;11.00;99.90;;;;;;5018395;28;20068;-80
2024/03/22 11:19:57;;;;;;;6.45;3.50;;;11.00;99.90;;;;;;5020185;28;20386;-82
2024/03/22 11:22:24;;;;;;;8.38;3.53;;;11.10;99.90;;;;;;5019806;28;20481;-82
2024/03/22 11:24:50;;;;;;;9.57;3.45;;;11.10;99.90;;;;;;5018267;28;20030;-81
2024/03/22 11:27:16;;;;;;;5.18;2.60;;;11.20;99.90;;;;;;5020791;28;20028;-81
2024/03/22 11:29:41;;;;;;;6.95;2.50;;;11.20;99.90;;;;;;5020716;28;20079;-82
2024/03/22 11:32:12;;;;;;;5.70;2.30;;;11.70;99.90;;;;;;5021396;28;20021;-82
2024/03/22 11:34:38;;;;;;;5.82;2.28;;;11.20;99.90;;;;;;5021799;28;20022;-82
2024/03/22 11:37:07;;;;;;;7.05;2.03;;;11.20;99.90;;;;;;5021538;28;20109;-82
2024/03/22 11:39:34;;;;;;;4.88;2.30;;;11.20;99.90;;;;;;5022493;28;20370;-82
2024/03/22 11:42:01;;;;;;;6.47;1.85;;;11.20;99.90;;;;;;5020998;28;20021;-82
2024/03/22 11:44:28;;;;;;;5.43;1.65;;;11.20;99.90;;;;;;5020575;28;20033;-82
2024/03/22 11:46:53;;;;;;;3.67;1.90;;;11.20;99.90;;;;;;5020753;28;20018;-83
2024/03/22 11:49:19;;;;;;;4.85;1.83;;;11.20;99.90;;;;;;5022728;28;20049;-80
2024/03/22 11:51:48;;;;;;;2.92;1.05;;;11.10;99.90;;;;;;5022701;28;20022;-82
2024/03/22 11:54:13;;;;;;;;;;;11.10;99.90;;;;;;5022566;28;20018;-84
2024/03/22 11:56:40;;;;;;;4.35;1.52;;;11.10;99.90;;;;;;5023253;28;19912;-82
2024/03/22 11:59:06;;;;;;;4.95;1.85;;;11.10;99.90;;;;;;5023640;28;20462;-84
2024/03/22 12:01:33;;;;;;;5.68;2.33;;;11.10;99.90;;;;;;5021478;28;20030;-82
2024/03/22 12:03:59;;;;;;;7.70;2.78;;;;;;;;;;5021257;28;20029;-81
2024/03/22 12:06:25;;;;;;;6.93;2.58;;;11.10;99.90;;;;;;5022998;28;20022;-83
2024/03/22 12:08:50;;;;;;;6.50;3.13;;;11.10;99.90;;;;;;5020684;28;20014;-82
2024/03/22 12:11:16;;;;;;;5.65;2.63;;;11.00;99.90;;;;;;5021950;28;20029;-81
2024/03/22 12:13:42;;;;;;;9.77;3.30;;;11.00;99.90;;;;;;5020688;28;20499;-83
2024/03/22 12:16:07;;;;;;;7.55;3.08;;;10.90;99.90;;;;;;5020012;28;20494;-81
2024/03/22 12:18:33;;;;;;;7.93;3.55;;;10.90;99.90;;;;;;5019501;28;20080;-81
2024/03/22 12:21:00;;;;;;;9.27;3.35;;;10.80;99.90;;;;;;5019288;28;20022;-81
2024/03/22 12:23:25;;;;;;;8.10;3.10;;;10.80;99.90;;;;;;5021200;28;20018;-82
2024/03/22 12:25:51;;;;;;;10.05;3.50;;;10.80;99.90;;;;;;5019853;28;20033;-81
2024/03/22 12:28:23;;;;;;;8.98;3.88;;;10.90;99.90;;;;;;5020451;28;20018;-80
2024/03/22 12:30:50;;;;;;;9.25;4.10;;;10.80;99.90;;;;;;5020255;28;20033;-79
2024/03/22 12:33:15;;;;;;;11.18;4.82;;;10.90;99.90;;;;;;5017270;28;20393;-82
2024/03/22 12:35:45;;;;;;;12.00;5.25;;;10.90;99.90;;;;;;5019908;28;20137;-86
2024/03/22 12:38:13;;;;;;;15.80;5.32;;;10.90;99.90;;;;;;5022997;28;20029;-85